createdAt,value
2022-10-05T00:03:14.426Z,12.25
2022-10-05T00:05:45.372Z,17.52
2022-10-05T00:08:17.726Z,14.98
2022-10-05T00:10:49.150Z,15.77
2022-10-05T00:13:20.621Z,21.13
2022-10-05T00:15:51.614Z,15.35
2022-10-05T00:18:20.665Z,18.02
2022-10-05T00:20:49.195Z,18.30
2022-10-05T00:23:19.852Z,17.95
2022-10-05T00:25:47.742Z,19.35
2022-10-05T00:28:20.075Z,19.27
2022-10-05T00:30:47.647Z,25.20
2022-10-05T00:33:14.927Z,18.88
2022-10-05T00:35:42.267Z,22.25
2022-10-05T00:38:09.549Z,16.55
2022-10-05T00:40:55.775Z,19.70
2022-10-05T00:43:41.527Z,20.88
2022-10-05T00:46:23.049Z,23.00
2022-10-05T00:48:56.399Z,20.25
2022-10-05T00:51:28.545Z,19.73
2022-10-05T00:54:08.125Z,23.13
2022-10-05T00:56:50.536Z,20.52
2022-10-05T00:59:23.811Z,21.10
2022-10-05T01:02:08.708Z,21.67
2022-10-05T01:04:50.831Z,23.30
2022-10-05T01:07:20.891Z,20.20
2022-10-05T01:10:05.464Z,16.05
2022-10-05T01:13:10.241Z,21.48
2022-10-05T01:15:47.103Z,21.63
2022-10-05T01:18:24.771Z,18.23
2022-10-05T01:21:14.617Z,18.05
2022-10-05T01:24:05.176Z,18.73
2022-10-05T01:26:44.778Z,18.33
2022-10-05T01:29:17.912Z,16.48
2022-10-05T01:31:56.756Z,15.45
2022-10-05T01:34:42.625Z,18.58
2022-10-05T01:37:38.934Z,20.58
2022-10-05T01:40:31.986Z,17.48
2022-10-05T01:43:11.393Z,19.63
2022-10-05T01:46:21.612Z,16.52
2022-10-05T01:49:11.973Z,15.52
2022-10-05T01:51:55.701Z,18.30
2022-10-05T01:54:51.952Z,15.63
2022-10-05T01:57:24.779Z,14.82
2022-10-05T02:00:15.234Z,16.23
2022-10-05T02:02:50.680Z,15.05
2022-10-05T02:05:26.342Z,18.05
2022-10-05T02:07:58.686Z,17.13
2022-10-05T02:10:57.617Z,16.50
2022-10-05T02:13:52.721Z,16.88
2022-10-05T02:16:34.899Z,14.52
2022-10-05T02:19:21.799Z,15.05
2022-10-05T02:22:12.992Z,15.77
2022-10-05T02:24:50.859Z,18.87
2022-10-05T02:27:24.551Z,17.63
2022-10-05T02:29:56.789Z,19.80
2022-10-05T02:32:28.474Z,15.95
2022-10-05T02:35:04.233Z,17.08
2022-10-05T02:37:43.739Z,15.55
2022-10-05T02:40:29.141Z,16.98
2022-10-05T02:43:07.918Z,16.65
2022-10-05T02:46:08.092Z,18.77
2022-10-05T02:48:56.380Z,16.17
2022-10-05T02:51:37.709Z,17.30
2022-10-05T02:54:38.062Z,13.60
2022-10-05T02:57:20.277Z,15.38
2022-10-05T03:00:08.314Z,17.13
2022-10-05T03:02:43.297Z,17.63
2022-10-05T03:05:35.083Z,17.98
2022-10-05T03:08:13.680Z,17.60
2022-10-05T03:10:53.659Z,20.38
2022-10-05T03:13:39.398Z,19.60
2022-10-05T03:16:07.508Z,20.73
2022-10-05T03:19:12.017Z,19.45
2022-10-05T03:21:59.054Z,17.33
2022-10-05T03:24:51.921Z,24.08
2022-10-05T03:27:28.777Z,19.63
2022-10-05T03:30:09.746Z,19.70
2022-10-05T03:32:47.775Z,26.40
2022-10-05T03:35:20.237Z,19.02
2022-10-05T03:37:56.103Z,18.30
2022-10-05T03:40:36.854Z,18.33
2022-10-05T03:43:16.707Z,23.38
2022-10-05T03:46:06.411Z,18.13
2022-10-05T03:48:52.627Z,21.73
2022-10-05T03:51:23.506Z,21.15
2022-10-05T03:54:00.777Z,22.02
2022-10-05T03:56:37.337Z,19.30
2022-10-05T03:59:21.914Z,20.17
2022-10-05T04:01:57.010Z,20.05
2022-10-05T04:04:33.041Z,21.35
2022-10-05T04:07:01.976Z,18.73
2022-10-05T04:09:35.427Z,25.77
2022-10-05T04:12:33.410Z,18.13
2022-10-05T04:15:08.102Z,18.48
2022-10-05T04:17:42.489Z,21.08
2022-10-05T04:20:22.816Z,21.38
2022-10-05T04:22:50.185Z,20.23
2022-10-05T04:25:22.839Z,19.00
2022-10-05T04:28:16.504Z,19.40
2022-10-05T04:30:50.222Z,17.13
2022-10-05T04:33:17.670Z,21.10
2022-10-05T04:36:05.055Z,18.42
2022-10-05T04:38:51.763Z,20.35
2022-10-05T04:41:36.815Z,17.63
2022-10-05T04:44:35.235Z,18.83
2022-10-05T04:47:50.697Z,18.70
2022-10-05T04:50:18.056Z,18.65
2022-10-05T04:53:00.596Z,19.42
2022-10-05T04:55:52.503Z,19.95
2022-10-05T04:58:55.533Z,18.05
2022-10-05T05:02:02.252Z,16.52
2022-10-05T05:04:36.045Z,16.20
2022-10-05T05:07:32.099Z,16.15
2022-10-05T05:10:39.553Z,16.50
2022-10-05T05:13:46.553Z,17.10
2022-10-05T05:16:39.870Z,18.83
2022-10-05T05:19:37.564Z,16.95
2022-10-05T05:22:08.075Z,19.60
2022-10-05T05:24:54.491Z,16.85
2022-10-05T05:28:06.409Z,15.68
2022-10-05T05:30:44.206Z,16.02
2022-10-05T05:33:27.778Z,19.30
2022-10-05T05:36:02.599Z,16.33
2022-10-05T05:38:43.378Z,16.88
2022-10-05T05:41:13.883Z,15.23
2022-10-05T05:44:22.995Z,16.67
2022-10-05T05:47:20.800Z,14.73
2022-10-05T05:50:10.404Z,22.30
2022-10-05T05:52:45.227Z,15.48
2022-10-05T05:55:30.351Z,16.80
2022-10-05T05:58:27.454Z,16.80
2022-10-05T06:01:04.320Z,14.68
2022-10-05T06:03:44.381Z,14.90
2022-10-05T06:06:17.052Z,19.40
2022-10-05T06:08:52.431Z,15.63
2022-10-05T06:11:40.216Z,19.30
2022-10-05T06:14:34.093Z,15.73
2022-10-05T06:17:12.095Z,16.23
2022-10-05T06:19:40.584Z,15.25
2022-10-05T06:22:15.153Z,17.85
2022-10-05T06:25:28.947Z,15.88
2022-10-05T06:28:14.110Z,19.95
2022-10-05T06:31:07.426Z,16.67
2022-10-05T06:33:53.964Z,18.63
2022-10-05T06:36:38.917Z,20.25
2022-10-05T06:39:12.493Z,21.90
2022-10-05T06:41:48.516Z,22.45
2022-10-05T06:44:24.891Z,18.95
2022-10-05T06:47:25.460Z,17.35
2022-10-05T06:50:42.655Z,16.52
2022-10-05T06:53:33.684Z,15.77
2022-10-05T06:59:07.307Z,21.30
2022-10-05T07:01:58.679Z,15.68
2022-10-05T07:04:39.234Z,17.77
2022-10-05T07:07:42.472Z,17.25
2022-10-05T07:10:29.170Z,17.80
2022-10-05T07:13:21.539Z,17.92
2022-10-05T07:16:01.614Z,18.80
2022-10-05T07:18:46.516Z,19.45
2022-10-05T07:21:53.367Z,20.23
2022-10-05T07:24:32.954Z,20.20
2022-10-05T07:27:06.360Z,19.27
2022-10-05T07:29:48.400Z,17.08
2022-10-05T07:32:34.729Z,16.80
2022-10-05T07:35:32.380Z,16.88
2022-10-05T07:38:38.643Z,19.58
2022-10-05T07:41:17.399Z,19.58
2022-10-05T07:44:03.390Z,17.35
2022-10-05T07:47:02.117Z,17.83
2022-10-05T07:49:42.337Z,18.35
2022-10-05T07:52:23.863Z,19.08
2022-10-05T07:55:09.331Z,17.88
2022-10-05T07:58:05.089Z,18.30
2022-10-05T08:01:02.002Z,21.05
2022-10-05T08:03:47.272Z,19.17
2022-10-05T08:06:49.035Z,17.98
2022-10-05T08:09:26.987Z,17.92
2022-10-05T08:12:06.098Z,22.88
2022-10-05T08:15:02.660Z,18.48
2022-10-05T08:17:46.644Z,16.92
2022-10-05T08:20:40.456Z,14.70
2022-10-05T08:23:25.194Z,17.80
2022-10-05T08:26:07.766Z,17.15
2022-10-05T08:28:47.027Z,16.77
2022-10-05T08:31:20.763Z,17.13
2022-10-05T08:34:16.836Z,20.15
2022-10-05T08:37:05.509Z,15.90
2022-10-05T08:39:40.910Z,15.40
2022-10-05T08:42:23.315Z,16.92
2022-10-05T08:45:09.143Z,16.67
2022-10-05T08:48:10.404Z,15.13
2022-10-05T08:50:40.995Z,15.18
2022-10-05T08:53:47.171Z,13.88
2022-10-05T08:56:22.255Z,12.88
2022-10-05T08:59:17.878Z,9.98
2022-10-05T09:02:03.985Z,10.05
2022-10-05T09:04:40.027Z,9.38
2022-10-05T09:07:07.244Z,10.55
2022-10-05T09:10:06.473Z,10.35
2022-10-05T09:13:08.990Z,10.50
2022-10-05T09:18:55.571Z,12.73
2022-10-05T09:21:44.761Z,13.02
2022-10-05T09:24:12.351Z,10.00
2022-10-05T09:26:42.493Z,10.07
2022-10-05T09:29:33.981Z,11.02
2022-10-05T09:32:34.882Z,13.18
2022-10-05T09:35:21.608Z,8.73
2022-10-05T09:38:08.346Z,10.02
2022-10-05T09:40:57.457Z,10.05
2022-10-05T09:44:02.274Z,10.13
2022-10-05T09:46:56.085Z,12.13
2022-10-05T09:49:36.508Z,11.13
2022-10-05T09:52:19.186Z,9.82
2022-10-05T09:55:31.193Z,10.73
2022-10-05T09:58:20.342Z,10.23
2022-10-05T10:01:36.499Z,8.77
2022-10-05T10:04:26.609Z,7.60
2022-10-05T10:07:25.776Z,8.93
2022-10-05T10:10:13.925Z,8.30
2022-10-05T10:12:57.143Z,11.10
2022-10-05T10:15:52.666Z,7.55
2022-10-05T10:18:52.447Z,7.75
2022-10-05T10:21:42.378Z,10.73
2022-10-05T10:24:18.426Z,9.45
2022-10-05T10:27:04.543Z,9.00
2022-10-05T10:29:50.550Z,8.55
2022-10-05T10:32:46.950Z,10.10
2022-10-05T10:35:33.701Z,14.48
2022-10-05T10:38:27.693Z,10.00
2022-10-05T10:41:19.364Z,14.82
2022-10-05T10:44:22.364Z,17.65
2022-10-05T10:46:59.408Z,10.73
2022-10-05T10:49:32.620Z,11.85
2022-10-05T10:52:19.577Z,11.73
2022-10-05T10:54:46.793Z,10.05
2022-10-05T10:57:51.433Z,8.57
2022-10-05T11:00:30.626Z,9.10
2022-10-05T11:03:13.574Z,9.50
2022-10-05T11:06:20.958Z,11.15
2022-10-05T11:08:57.002Z,9.80
2022-10-05T11:11:24.296Z,10.13
2022-10-05T11:14:27.793Z,11.60
2022-10-05T11:16:57.706Z,11.18
2022-10-05T11:20:05.208Z,12.45
2022-10-05T11:22:45.925Z,16.77
2022-10-05T11:25:19.012Z,14.57
2022-10-05T11:28:14.275Z,12.90
2022-10-05T11:30:41.622Z,12.93
2022-10-05T11:33:30.909Z,13.00
2022-10-05T11:36:29.339Z,10.73
2022-10-05T11:39:05.972Z,17.52
2022-10-05T11:41:44.306Z,12.68
2022-10-05T11:44:15.412Z,11.68
2022-10-05T11:47:15.749Z,16.33
2022-10-05T11:49:58.129Z,14.23
2022-10-05T11:52:43.820Z,10.32
2022-10-05T11:55:32.906Z,12.15
2022-10-05T11:58:20.229Z,13.38
2022-10-05T12:01:07.063Z,11.40
2022-10-05T12:03:43.089Z,11.98
2022-10-05T12:06:47.465Z,14.30
2022-10-05T12:09:36.510Z,11.23
2022-10-05T12:12:27.057Z,12.68
2022-10-05T12:15:25.329Z,12.07
2022-10-05T12:18:01.878Z,13.77
2022-10-05T12:20:35.019Z,13.88
2022-10-05T12:23:39.361Z,15.13
2022-10-05T12:26:20.512Z,11.63
2022-10-05T12:28:52.059Z,10.25
2022-10-05T12:31:44.275Z,14.38
2022-10-05T12:37:16.913Z,14.30
2022-10-05T12:40:06.195Z,15.77
2022-10-05T12:42:41.879Z,13.07
2022-10-05T12:45:29.298Z,11.95
2022-10-05T12:48:18.798Z,13.63
2022-10-05T12:51:11.895Z,13.73
2022-10-05T12:54:00.236Z,15.48
2022-10-05T12:56:59.160Z,16.85
2022-10-05T12:59:44.604Z,14.30
2022-10-05T13:02:20.812Z,12.60
2022-10-05T13:04:56.489Z,14.73
2022-10-05T13:07:31.985Z,16.85
2022-10-05T13:10:02.025Z,17.15
2022-10-05T13:12:51.018Z,13.77
2022-10-05T13:15:30.283Z,14.45
2022-10-05T13:18:16.141Z,14.00
2022-10-05T13:21:14.003Z,16.80
2022-10-05T13:23:57.210Z,14.38
2022-10-05T13:26:48.557Z,14.48
2022-10-05T13:29:33.178Z,15.07
2022-10-05T13:32:09.637Z,17.00
2022-10-05T13:34:47.132Z,13.18
2022-10-05T13:37:33.894Z,13.98
2022-10-05T13:40:32.429Z,14.70
2022-10-05T13:43:14.516Z,16.23
2022-10-05T13:46:03.033Z,16.15
2022-10-05T13:48:59.346Z,15.02
2022-10-05T13:51:54.341Z,17.58
2022-10-05T13:54:48.098Z,16.55
2022-10-05T13:57:46.305Z,17.95
2022-10-05T14:00:26.401Z,15.35
2022-10-05T14:02:58.104Z,14.52
2022-10-05T14:05:27.890Z,19.08
2022-10-05T14:08:04.275Z,15.60
2022-10-05T14:10:43.646Z,17.77
2022-10-05T14:13:35.070Z,14.88
2022-10-05T14:16:24.885Z,18.03
2022-10-05T14:19:18.547Z,17.40
2022-10-05T14:22:11.268Z,16.13
2022-10-05T14:25:18.085Z,15.98
2022-10-05T14:28:23.983Z,20.35
2022-10-05T14:30:59.445Z,20.20
2022-10-05T14:33:29.870Z,18.90
2022-10-05T14:35:58.717Z,17.35
2022-10-05T14:38:46.796Z,17.52
2022-10-05T14:41:28.719Z,18.00
2022-10-05T14:44:28.052Z,17.88
2022-10-05T14:47:04.393Z,14.60
2022-10-05T14:49:36.194Z,17.40
2022-10-05T14:52:32.371Z,18.33
2022-10-05T14:55:17.728Z,16.30
2022-10-05T14:58:09.117Z,15.30
2022-10-05T15:00:56.970Z,13.70
2022-10-05T15:03:50.960Z,20.15
2022-10-05T15:06:54.701Z,18.40
2022-10-05T15:10:14.168Z,15.73
2022-10-05T15:12:46.736Z,18.15
2022-10-05T15:15:27.094Z,19.15
2022-10-05T15:18:00.439Z,16.30
2022-10-05T15:20:45.812Z,15.73
2022-10-05T15:23:26.299Z,17.33
2022-10-05T15:26:14.242Z,16.88
2022-10-05T15:29:02.868Z,19.98
2022-10-05T15:31:52.086Z,17.70
2022-10-05T15:34:36.853Z,19.98
2022-10-05T15:37:25.865Z,15.73
2022-10-05T15:39:58.996Z,15.18
2022-10-05T15:42:38.244Z,17.17
2022-10-05T15:45:32.322Z,17.38
2022-10-05T15:48:04.978Z,18.67
2022-10-05T15:50:58.134Z,19.17
2022-10-05T15:53:34.805Z,15.68
2022-10-05T15:56:36.114Z,16.15
2022-10-05T15:59:30.589Z,19.60
2022-10-05T16:02:04.503Z,16.55
2022-10-05T16:04:43.702Z,16.05
2022-10-05T16:07:55.302Z,15.95
2022-10-05T16:10:26.344Z,18.23
2022-10-05T16:13:02.576Z,16.38
2022-10-05T16:15:41.311Z,16.63
2022-10-05T16:18:12.140Z,16.45
2022-10-05T16:20:57.055Z,15.20
2022-10-05T16:23:50.300Z,19.83
2022-10-05T16:26:42.328Z,17.17
2022-10-05T16:29:35.591Z,16.17
2022-10-05T16:32:26.246Z,12.25
2022-10-05T16:34:54.236Z,16.65
2022-10-05T16:37:41.031Z,17.77
2022-10-05T16:40:33.070Z,14.45
2022-10-05T16:43:33.490Z,17.10
2022-10-05T16:46:22.602Z,18.02
2022-10-05T16:49:03.111Z,14.13
2022-10-05T16:51:45.488Z,14.52
2022-10-05T16:54:26.053Z,14.55
2022-10-05T16:57:09.770Z,13.88
2022-10-05T16:59:49.174Z,14.00
2022-10-05T17:02:51.690Z,14.73
2022-10-05T17:08:17.906Z,15.57
2022-10-05T17:11:11.309Z,13.90
2022-10-05T17:14:17.665Z,16.33
2022-10-05T17:16:51.262Z,16.05
2022-10-05T17:19:38.587Z,16.65
2022-10-05T17:22:14.584Z,16.52
2022-10-05T17:24:50.988Z,15.23
2022-10-05T17:27:31.895Z,17.55
2022-10-05T17:30:19.547Z,18.50
2022-10-05T17:33:29.053Z,18.23
2022-10-05T17:36:16.879Z,22.30
2022-10-05T17:38:48.812Z,17.40
2022-10-05T17:41:24.848Z,20.55
2022-10-05T17:44:19.030Z,20.35
2022-10-05T17:46:54.895Z,18.67
2022-10-05T17:49:25.876Z,16.98
2022-10-05T17:52:11.678Z,16.17
2022-10-05T17:55:03.699Z,15.45
2022-10-05T17:57:32.081Z,16.30
2022-10-05T18:00:02.322Z,18.17
2022-10-05T18:02:36.194Z,17.33
2022-10-05T18:07:34.560Z,15.30
2022-10-05T18:10:17.209Z,18.30
2022-10-05T18:12:59.534Z,19.55
2022-10-05T18:15:26.866Z,17.40
2022-10-05T18:18:38.803Z,19.30
2022-10-05T18:21:23.084Z,16.83
2022-10-05T18:23:59.670Z,19.27
2022-10-05T18:26:53.068Z,20.40
2022-10-05T18:29:48.114Z,19.42
2022-10-05T18:32:52.214Z,19.20
2022-10-05T18:35:38.063Z,18.90
2022-10-05T18:38:30.276Z,16.45
2022-10-05T18:41:44.483Z,19.63
2022-10-05T18:44:14.290Z,17.42
2022-10-05T18:47:09.309Z,17.75
2022-10-05T18:50:10.420Z,20.88
2022-10-05T18:52:55.068Z,23.38
2022-10-05T18:55:32.996Z,21.23
2022-10-05T18:58:26.020Z,21.45
2022-10-05T19:01:39.073Z,18.73
2022-10-05T19:04:12.586Z,20.25
2022-10-05T19:06:56.955Z,20.50
2022-10-05T19:09:46.988Z,19.77
2022-10-05T19:12:26.186Z,19.77
2022-10-05T19:14:59.472Z,22.90
2022-10-05T19:17:52.035Z,20.10
2022-10-05T19:20:19.355Z,24.02
2022-10-05T19:22:52.658Z,19.88
2022-10-05T19:25:39.932Z,24.98
2022-10-05T19:28:31.746Z,23.25
2022-10-05T19:31:18.665Z,23.27
2022-10-05T19:33:53.822Z,22.35
2022-10-05T19:36:59.668Z,20.38
2022-10-05T19:40:04.553Z,20.25
2022-10-05T19:42:45.221Z,19.60
2022-10-05T19:45:22.696Z,18.95
2022-10-05T19:48:14.491Z,21.08
2022-10-05T19:50:54.724Z,21.88
2022-10-05T19:53:37.010Z,20.25
2022-10-05T19:58:45.018Z,21.05
2022-10-05T20:01:24.716Z,20.45
2022-10-05T20:03:53.329Z,21.50
2022-10-05T20:06:25.190Z,21.27
2022-10-05T20:09:00.468Z,17.48
2022-10-05T20:11:29.133Z,18.58
2022-10-05T20:13:59.734Z,25.30
2022-10-05T20:16:50.789Z,21.30
2022-10-05T20:19:51.767Z,18.75
2022-10-05T20:22:43.185Z,18.48
2022-10-05T20:25:19.351Z,21.37
2022-10-05T20:27:55.577Z,24.85
2022-10-05T20:30:25.913Z,23.38
2022-10-05T20:32:59.677Z,19.20
2022-10-05T20:35:31.979Z,22.48
2022-10-05T20:37:59.900Z,21.63
2022-10-05T20:40:29.233Z,22.77
2022-10-05T20:42:58.372Z,22.25
2022-10-05T20:45:25.867Z,24.23
2022-10-05T20:47:53.134Z,27.73
2022-10-05T20:50:22.211Z,24.00
2022-10-05T20:52:49.580Z,23.40
2022-10-05T20:55:17.046Z,25.95
2022-10-05T20:57:46.070Z,24.67
2022-10-05T21:00:13.899Z,25.98
2022-10-05T21:02:41.238Z,28.30
2022-10-05T21:05:08.910Z,23.73
2022-10-05T21:07:36.432Z,29.30
2022-10-05T21:10:04.040Z,25.23
2022-10-05T21:12:33.974Z,26.85
2022-10-05T21:15:01.505Z,26.00
2022-10-05T21:17:28.831Z,26.48
2022-10-05T21:19:56.187Z,24.98
2022-10-05T21:22:23.644Z,24.80
2022-10-05T21:24:50.905Z,24.02
2022-10-05T21:27:18.281Z,26.27
2022-10-05T21:29:46.158Z,25.98
2022-10-05T21:32:13.451Z,31.83
2022-10-05T21:34:41.513Z,26.63
2022-10-05T21:37:09.107Z,25.15
2022-10-05T21:39:36.769Z,27.52
2022-10-05T21:42:04.486Z,22.55
2022-10-05T21:44:31.805Z,24.00
2022-10-05T21:46:59.211Z,25.83
2022-10-05T21:49:27.708Z,25.75
2022-10-05T21:51:55.315Z,24.42
2022-10-05T21:54:23.748Z,22.83
2022-10-05T21:56:54.758Z,23.50
2022-10-05T21:59:26.603Z,23.40
2022-10-05T22:01:54.029Z,20.52
2022-10-05T22:04:21.303Z,22.73
2022-10-05T22:06:49.242Z,24.95
2022-10-05T22:09:16.511Z,24.73
2022-10-05T22:11:47.521Z,27.00
2022-10-05T22:14:15.589Z,28.97
2022-10-05T22:16:44.098Z,24.30
2022-10-05T22:19:18.106Z,24.02
2022-10-05T22:21:45.496Z,23.85
2022-10-05T22:24:12.727Z,27.63
2022-10-05T22:26:43.590Z,26.20
2022-10-05T22:29:11.092Z,26.58
2022-10-05T22:31:39.251Z,22.58
2022-10-05T22:34:06.741Z,25.65
2022-10-05T22:36:37.557Z,21.98
2022-10-05T22:39:04.909Z,24.98
2022-10-05T22:41:32.275Z,24.52
2022-10-05T22:44:00.566Z,24.45
2022-10-05T22:46:27.914Z,25.77
2022-10-05T22:48:55.218Z,26.20
2022-10-05T22:51:23.672Z,26.10
2022-10-05T22:53:50.974Z,25.85
2022-10-05T22:56:18.384Z,28.20
2022-10-05T22:58:46.157Z,24.33
2022-10-05T23:01:16.371Z,24.88
2022-10-05T23:03:44.313Z,25.95
2022-10-05T23:06:17.849Z,26.45
2022-10-05T23:08:46.053Z,25.45
2022-10-05T23:11:16.355Z,22.65
2022-10-05T23:13:44.271Z,24.65
2022-10-05T23:16:16.888Z,26.27
2022-10-05T23:18:44.966Z,27.02
2022-10-05T23:21:13.513Z,27.40
2022-10-05T23:23:43.583Z,29.10
2022-10-05T23:26:11.631Z,25.83
2022-10-05T23:28:46.537Z,28.45
2022-10-05T23:31:17.487Z,31.65
2022-10-05T23:33:45.224Z,27.35
2022-10-05T23:36:15.830Z,27.83
2022-10-05T23:38:43.515Z,26.75
2022-10-05T23:41:11.155Z,27.63
2022-10-05T23:43:38.823Z,30.38
2022-10-05T23:46:07.432Z,26.17
2022-10-05T23:48:37.968Z,27.52
2022-10-05T23:51:07.549Z,26.92
2022-10-05T23:53:35.317Z,27.85
2022-10-05T23:56:02.667Z,26.45
2022-10-05T23:58:30.340Z,29.45
